Time;durP1;ratioP1;P1;durP2;ratioP2;P2;SDS_P1;SDS_P2;PMS_P1;PMS_P2;Temp;Humidity;BMP_temperature;BMP_pressure;BME280_temperature;BME280_humidity;BME280_pressure;Samples;Min_cycle;Max_cycle;Signal;HPM_P1;HPM_P2
2021/01/25 00:00:14;;;;;;;7.22;5.82;;;4.90;79.90;;;;;;4935601;29;20051;-79
2021/01/25 00:02:44;;;;;;;7.68;6.03;;;4.90;79.40;;;;;;4932357;29;20039;-80
2021/01/25 00:05:14;;;;;;;7.97;5.93;;;4.90;79.20;;;;;;4920031;29;20036;-80
2021/01/25 00:07:40;;;;;;;8.52;6.10;;;4.90;79.20;;;;;;4915861;29;20481;-80
2021/01/25 00:10:07;;;;;;;7.65;6.07;;;4.90;79.30;;;;;;4922239;29;20489;-79
2021/01/25 00:12:33;;;;;;;7.68;5.80;;;4.90;79.30;;;;;;4928170;29;20489;-80
2021/01/25 00:14:59;;;;;;;7.65;5.82;;;4.90;79.40;;;;;;4916126;29;20082;-81
2021/01/25 00:17:25;;;;;;;8.00;6.25;;;4.90;79.30;;;;;;4928514;29;20044;-79
2021/01/25 00:19:52;;;;;;;8.43;6.38;;;4.80;79.30;;;;;;4903800;29;20361;-79
2021/01/25 00:22:18;;;;;;;8.30;5.88;;;4.80;79.30;;;;;;4931406;29;20061;-79
2021/01/25 00:24:44;;;;;;;8.48;5.82;;;4.80;79.20;;;;;;4917392;29;21517;-79
2021/01/25 00:27:09;;;;;;;7.65;5.80;;;4.80;79.20;;;;;;4919341;29;20073;-79
2021/01/25 00:29:35;;;;;;;8.05;5.82;;;4.80;79.30;;;;;;4919018;29;20032;-79
2021/01/25 00:32:01;;;;;;;8.88;6.70;;;4.80;79.20;;;;;;4933935;29;20067;-83
2021/01/25 00:34:28;;;;;;;8.45;6.80;;;4.80;79.30;;;;;;4915893;29;20568;-80
2021/01/25 00:36:54;;;;;;;7.30;5.68;;;4.80;79.30;;;;;;4932468;29;20040;-80
2021/01/25 00:39:20;;;;;;;7.25;5.70;;;4.80;79.30;;;;;;4931416;29;20047;-80
2021/01/25 00:41:46;;;;;;;7.70;6.03;;;4.80;79.30;;;;;;4942229;29;20043;-79
2021/01/25 00:44:11;;;;;;;7.53;5.47;;;4.80;79.30;;;;;;4903057;29;20381;-79
2021/01/25 00:46:37;;;;;;;7.30;5.28;;;4.80;79.30;;;;;;4931878;29;20040;-80
2021/01/25 00:49:03;;;;;;;7.13;5.90;;;4.70;79.20;;;;;;4922332;29;20059;-85
2021/01/25 00:51:29;;;;;;;8.27;6.20;;;4.80;79.30;;;;;;4928012;29;20091;-80
2021/01/25 00:53:55;;;;;;;7.10;5.68;;;4.80;79.30;;;;;;4917924;29;20064;-80
2021/01/25 00:56:21;;;;;;;8.25;5.55;;;4.80;79.30;;;;;;4918167;29;20075;-80
2021/01/25 00:58:47;;;;;;;8.05;5.68;;;4.70;79.30;;;;;;4931183;29;20485;-79
2021/01/25 01:01:13;;;;;;;7.82;5.63;;;4.70;79.30;;;;;;4927567;29;20042;-79
2021/01/25 01:03:42;;;;;;;7.60;5.88;;;4.70;79.30;;;;;;4920432;29;20103;-80
2021/01/25 01:06:08;;;;;;;7.75;5.95;;;4.70;79.30;;;;;;4914200;29;20035;-82
2021/01/25 01:08:33;;;;;;;8.18;5.90;;;4.70;79.30;;;;;;4930820;29;20051;-80
2021/01/25 01:10:59;;;;;;;8.77;6.20;;;4.70;79.30;;;;;;4927025;29;20055;-80
2021/01/25 01:13:25;;;;;;;8.25;6.25;;;4.70;79.30;;;;;;4905209;29;20102;-80
2021/01/25 01:15:51;;;;;;;8.02;6.47;;;4.70;79.40;;;;;;4916894;29;20436;-80
2021/01/25 01:18:17;;;;;;;7.63;6.10;;;4.70;79.40;;;;;;4918056;29;20035;-81
2021/01/25 01:20:43;;;;;;;6.90;5.45;;;4.70;79.40;;;;;;4916504;29;20058;-80
2021/01/25 01:23:08;;;;;;;8.23;6.05;;;4.70;79.40;;;;;;4918147;29;20115;-79
2021/01/25 01:25:34;;;;;;;10.40;6.65;;;4.70;79.40;;;;;;4902144;29;20036;-80
2021/01/25 01:28:00;;;;;;;7.00;5.78;;;4.70;79.40;;;;;;4934091;29;20048;-81
2021/01/25 01:30:26;;;;;;;7.45;5.63;;;4.70;79.40;;;;;;4923896;29;20043;-79
2021/01/25 01:32:52;;;;;;;7.82;6.38;;;4.70;79.40;;;;;;4934213;29;20441;-79
2021/01/25 01:35:17;;;;;;;7.43;5.38;;;4.70;79.40;;;;;;4918042;29;20032;-80
2021/01/25 01:37:43;;;;;;;7.50;5.25;;;4.70;79.40;;;;;;4910656;29;20043;-79
2021/01/25 01:40:12;;;;;;;8.57;6.55;;;4.70;79.40;;;;;;4928015;29;20370;-80
2021/01/25 01:42:38;;;;;;;9.65;7.20;;;4.70;79.40;;;;;;4931001;29;20488;-80
2021/01/25 01:45:06;;;;;;;7.72;6.10;;;4.70;79.40;;;;;;4925286;29;20563;-79
2021/01/25 01:47:33;;;;;;;8.60;6.65;;;4.70;79.40;;;;;;4912785;29;20507;-79
2021/01/25 01:50:00;;;;;;;9.07;6.43;;;4.70;79.40;;;;;;4914973;29;20507;-79
2021/01/25 01:52:25;;;;;;;8.45;6.47;;;4.70;79.40;;;;;;4915935;29;20500;-80
2021/01/25 01:54:56;;;;;;;8.70;7.07;;;4.70;79.40;;;;;;4902630;29;20036;-80
2021/01/25 01:57:22;;;;;;;9.13;6.95;;;4.70;79.40;;;;;;4933740;29;20136;-80
2021/01/25 01:59:48;;;;;;;8.40;6.68;;;4.70;79.40;;;;;;4917829;29;20036;-80
2021/01/25 02:02:14;;;;;;;9.05;6.85;;;4.60;79.40;;;;;;4948019;28;20032;-80
2021/01/25 02:04:40;;;;;;;8.10;6.70;;;4.60;79.40;;;;;;4917651;29;20032;-80
2021/01/25 02:07:08;;;;;;;7.75;6.50;;;4.60;79.40;;;;;;4930925;29;20035;-81
2021/01/25 02:09:39;;;;;;;9.13;7.07;;;4.60;79.40;;;;;;4919891;29;20027;-80
2021/01/25 02:12:07;;;;;;;8.40;6.75;;;4.70;79.50;;;;;;4920819;29;20047;-80
2021/01/25 02:14:33;;;;;;;9.95;7.70;;;4.60;79.40;;;;;;4921453;29;20481;-80
2021/01/25 02:16:59;;;;;;;9.73;7.00;;;4.60;79.40;;;;;;4921241;29;20032;-80
2021/01/25 02:19:28;;;;;;;8.25;7.03;;;4.60;79.40;;;;;;4923703;29;20476;-79
2021/01/25 02:22:12;;;;;;;10.30;7.07;;;4.60;79.40;;;;;;4921311;29;20024;-80
2021/01/25 02:24:55;;;;;;;8.25;6.60;;;4.60;79.50;;;;;;4918274;29;20024;-80
2021/01/25 02:27:30;;;;;;;10.48;7.72;;;4.60;79.40;;;;;;4921469;29;20217;-79
2021/01/25 02:29:57;;;;;;;10.00;8.02;;;4.60;79.40;;;;;;4936811;29;20036;-80
2021/01/25 02:32:24;;;;;;;9.50;6.95;;;4.60;79.40;;;;;;4917362;29;20070;-80
2021/01/25 02:34:50;;;;;;;10.27;7.70;;;4.60;79.50;;;;;;4902169;29;20055;-80
2021/01/25 02:37:16;;;;;;;9.23;7.30;;;4.60;79.50;;;;;;4915409;29;20103;-80
2021/01/25 02:39:43;;;;;;;9.30;7.72;;;4.60;79.50;;;;;;4895139;29;20028;-80
2021/01/25 02:42:10;;;;;;;9.98;7.75;;;4.60;80.10;;;;;;4931550;29;20028;-80
2021/01/25 02:44:38;;;;;;;10.05;7.90;;;4.60;79.50;;;;;;4951790;29;20031;-80
2021/01/25 02:47:04;;;;;;;10.93;7.43;;;4.60;79.50;;;;;;4930259;29;20028;-79
2021/01/25 02:49:30;;;;;;;10.07;7.57;;;4.60;79.50;;;;;;4931821;29;20539;-80
2021/01/25 02:51:56;;;;;;;9.25;7.80;;;4.60;79.50;;;;;;4920730;29;20481;-80
2021/01/25 02:54:22;;;;;;;10.60;7.80;;;4.60;79.50;;;;;;4920686;29;20091;-80
2021/01/25 02:56:48;;;;;;;9.38;6.72;;;4.60;79.50;;;;;;4920970;29;20405;-80
2021/01/25 02:59:15;;;;;;;8.55;7.18;;;4.60;79.50;;;;;;4934072;29;20032;-80
2021/01/25 03:01:43;;;;;;;8.70;6.88;;;4.60;79.50;;;;;;4932378;29;20074;-80
2021/01/25 03:04:09;;;;;;;9.25;6.95;;;4.60;79.50;;;;;;4933537;29;20024;-80
2021/01/25 03:06:35;;;;;;;9.60;7.13;;;4.60;79.50;;;;;;4918090;29;20063;-81
2021/01/25 03:09:01;;;;;;;10.40;7.53;;;4.60;79.50;;;;;;4936292;29;20111;-81
2021/01/25 03:11:27;;;;;;;10.43;7.88;;;4.60;79.50;;;;;;4936109;29;20081;-80
2021/01/25 03:13:53;;;;;;;10.02;7.95;;;4.60;79.50;;;;;;4907228;29;20501;-80
2021/01/25 03:16:18;;;;;;;10.40;7.65;;;4.60;79.50;;;;;;4930831;29;20050;-80
2021/01/25 03:18:44;;;;;;;9.45;7.57;;;4.60;79.50;;;;;;4910432;29;20059;-79
2021/01/25 03:21:10;;;;;;;8.98;7.68;;;4.60;79.50;;;;;;4925105;29;20031;-80
2021/01/25 03:23:38;;;;;;;10.27;7.43;;;4.60;79.50;;;;;;4914257;29;20039;-79
2021/01/25 03:26:04;;;;;;;9.60;7.82;;;4.60;79.50;;;;;;4928430;29;20028;-79
2021/01/25 03:28:30;;;;;;;11.55;8.40;;;4.60;79.50;;;;;;4932195;29;20512;-80
2021/01/25 03:30:56;;;;;;;9.57;7.63;;;4.60;79.50;;;;;;4931153;29;20032;-80
2021/01/25 03:33:21;;;;;;;9.52;7.57;;;4.60;79.50;;;;;;4918025;29;20028;-80
2021/01/25 03:35:47;;;;;;;10.55;7.95;;;4.60;79.50;;;;;;4935470;29;20087;-80
2021/01/25 03:38:13;;;;;;;10.00;7.70;;;4.60;79.50;;;;;;4920157;29;20035;-80
2021/01/25 03:40:38;;;;;;;9.95;7.55;;;4.60;79.50;;;;;;4931104;29;20032;-80
2021/01/25 03:43:04;;;;;;;9.93;8.15;;;4.50;79.50;;;;;;4928079;29;20032;-80
2021/01/25 03:45:30;;;;;;;9.70;7.47;;;4.60;79.50;;;;;;4948295;29;20557;-80
2021/01/25 03:47:56;;;;;;;10.70;8.00;;;4.60;79.60;;;;;;4932186;29;20032;-81
2021/01/25 03:50:21;;;;;;;10.43;8.38;;;4.60;79.50;;;;;;4919659;29;20036;-81
2021/01/25 03:52:47;;;;;;;9.70;7.72;;;4.50;79.50;;;;;;4920214;29;20034;-79
2021/01/25 03:55:13;;;;;;;9.30;7.85;;;4.50;79.50;;;;;;4916723;29;20110;-80
2021/01/25 03:57:39;;;;;;;11.20;8.23;;;4.50;79.50;;;;;;4916330;29;20060;-80
2021/01/25 04:00:07;;;;;;;11.32;8.57;;;4.50;79.50;;;;;;4935029;29;20028;-79
2021/01/25 04:02:32;;;;;;;10.02;7.95;;;4.50;79.50;;;;;;4934772;29;20705;-80
2021/01/25 04:04:58;;;;;;;10.77;8.43;;;4.50;79.40;;;;;;4919931;29;20031;-80
2021/01/25 04:07:24;;;;;;;9.68;7.25;;;4.50;79.50;;;;;;4919561;29;20031;-80
2021/01/25 04:09:50;;;;;;;9.93;7.97;;;4.50;79.40;;;;;;4916165;29;20409;-80
2021/01/25 04:12:16;;;;;;;10.48;7.75;;;4.50;79.40;;;;;;4934904;29;20495;-80
2021/01/25 04:14:41;;;;;;;10.10;7.85;;;4.50;79.50;;;;;;4929767;29;20023;-80
2021/01/25 04:17:07;;;;;;;9.70;7.53;;;4.50;79.50;;;;;;4935504;29;20488;-81
2021/01/25 04:19:33;;;;;;;9.75;7.90;;;4.50;79.50;;;;;;4916434;29;20091;-80
2021/01/25 04:21:59;;;;;;;11.15;8.15;;;4.50;79.50;;;;;;4919194;29;20396;-80
2021/01/25 04:24:24;;;;;;;9.98;7.38;;;4.50;79.50;;;;;;4935443;29;20036;-81
2021/01/25 04:26:50;;;;;;;9.68;7.65;;;4.50;79.50;;;;;;4902998;29;20099;-80
2021/01/25 04:29:16;;;;;;;9.75;7.53;;;4.50;79.50;;;;;;4914887;29;20028;-80
2021/01/25 04:31:41;;;;;;;11.40;7.88;;;4.50;79.50;;;;;;4912444;29;20031;-80
2021/01/25 04:34:07;;;;;;;9.43;7.32;;;4.50;79.50;;;;;;4919180;29;20059;-80
2021/01/25 04:36:33;;;;;;;10.70;7.93;;;4.50;79.50;;;;;;4918913;29;20057;-79
2021/01/25 04:39:00;;;;;;;9.73;7.88;;;4.50;79.50;;;;;;4900848;29;20547;-80
2021/01/25 04:41:26;;;;;;;9.88;7.80;;;4.50;79.50;;;;;;4927138;29;20062;-79
2021/01/25 04:43:54;;;;;;;10.55;7.40;;;4.50;79.50;;;;;;4934679;29;20023;-80
2021/01/25 04:46:22;;;;;;;9.10;7.15;;;4.50;79.50;;;;;;4931746;29;20036;-79
2021/01/25 04:48:49;;;;;;;9.38;7.50;;;4.40;79.40;;;;;;4934629;29;20027;-80
2021/01/25 04:51:15;;;;;;;9.55;7.15;;;4.40;79.50;;;;;;4931491;29;20024;-79
2021/01/25 04:53:43;;;;;;;9.05;7.38;;;4.40;79.50;;;;;;4913318;29;20032;-80
2021/01/25 04:56:10;;;;;;;9.20;7.25;;;4.40;79.50;;;;;;4933287;29;20063;-80
2021/01/25 04:58:36;;;;;;;10.27;8.05;;;4.40;79.40;;;;;;4932670;29;20115;-80
2021/01/25 05:01:03;;;;;;;10.50;8.05;;;4.40;79.40;;;;;;4915566;29;20067;-80
2021/01/25 05:03:29;;;;;;;10.07;7.63;;;4.40;79.40;;;;;;4928987;29;20035;-80
2021/01/25 05:05:55;;;;;;;10.73;8.02;;;4.40;79.40;;;;;;4921433;29;20503;-80
2021/01/25 05:08:21;;;;;;;11.18;7.57;;;4.40;79.40;;;;;;4917860;29;20087;-80
2021/01/25 05:10:47;;;;;;;10.73;7.90;;;4.40;79.40;;;;;;4931313;29;20440;-81
2021/01/25 05:13:24;;;;;;;9.35;7.25;;;4.30;79.40;;;;;;4912590;29;20048;-80
2021/01/25 05:15:52;;;;;;;9.52;7.45;;;4.40;79.50;;;;;;4918730;29;20043;-80
2021/01/25 05:18:24;;;;;;;11.63;7.93;;;4.40;79.40;;;;;;4926637;29;20027;-80
2021/01/25 05:20:55;;;;;;;9.98;8.10;;;4.30;79.40;;;;;;4915095;29;20032;-82
2021/01/25 05:23:21;;;;;;;10.30;7.38;;;4.30;79.40;;;;;;4933656;29;20047;-80
2021/01/25 05:25:47;;;;;;;9.38;7.13;;;4.30;79.30;;;;;;4918392;29;20592;-80
2021/01/25 05:28:16;;;;;;;9.68;7.68;;;4.30;79.30;;;;;;4917841;29;20393;-80
2021/01/25 05:30:41;;;;;;;9.35;7.07;;;4.30;79.40;;;;;;4934491;29;20034;-79
2021/01/25 05:33:07;;;;;;;9.30;7.68;;;4.30;79.30;;;;;;4933281;29;20481;-80
2021/01/25 05:35:35;;;;;;;10.45;8.23;;;4.30;79.30;;;;;;4918405;29;20031;-80
2021/01/25 05:38:07;;;;;;;9.55;7.70;;;4.30;79.40;;;;;;4930921;29;20051;-82
2021/01/25 05:40:34;;;;;;;9.48;7.57;;;4.20;79.30;;;;;;4919932;29;20028;-80
2021/01/25 05:43:01;;;;;;;11.13;8.00;;;4.20;79.30;;;;;;4954485;28;20038;-81
2021/01/25 05:45:30;;;;;;;10.05;8.38;;;4.20;79.30;;;;;;4924367;29;20549;-79
2021/01/25 05:47:59;;;;;;;9.15;7.35;;;4.20;79.30;;;;;;4924609;29;20376;-79
2021/01/25 05:50:39;;;;;;;9.35;6.95;;;4.20;79.30;;;;;;4939633;29;20337;-79
2021/01/25 05:53:05;;;;;;;9.75;8.02;;;4.20;79.30;;;;;;4939615;29;20465;-77
2021/01/25 05:55:32;;;;;;;9.93;7.47;;;4.20;79.20;;;;;;4940383;29;20107;-78
2021/01/25 05:57:58;;;;;;;9.35;7.40;;;4.10;79.20;;;;;;4932265;29;20469;-77
2021/01/25 06:00:25;;;;;;;9.85;7.30;;;4.10;79.20;;;;;;4939859;29;20469;-77
2021/01/25 06:02:52;;;;;;;11.00;8.05;;;4.10;79.20;;;;;;4924236;29;20024;-78
2021/01/25 06:05:27;;;;;;;9.48;7.90;;;4.10;79.20;;;;;;4932821;29;20151;-78
2021/01/25 06:08:03;;;;;;;9.20;7.65;;;4.10;79.20;;;;;;4939759;29;20495;-78
2021/01/25 06:10:37;;;;;;;10.02;8.15;;;4.10;79.20;;;;;;4939482;29;20038;-78
2021/01/25 06:13:15;;;;;;;9.70;7.82;;;4.00;79.20;;;;;;4923213;29;20051;-78
2021/01/25 06:15:42;;;;;;;10.52;7.90;;;4.00;79.20;;;;;;4935706;29;20484;-80
2021/01/25 06:18:07;;;;;;;10.00;7.82;;;4.00;79.20;;;;;;4937579;29;20126;-80
2021/01/25 06:20:35;;;;;;;10.55;8.32;;;4.00;79.10;;;;;;4933420;29;20120;-79
2021/01/25 06:23:02;;;;;;;10.00;7.75;;;4.00;79.20;;;;;;4926412;29;20703;-78
2021/01/25 06:25:29;;;;;;;9.70;7.65;;;4.00;79.20;;;;;;4947006;29;20035;-80
2021/01/25 06:27:56;;;;;;;9.93;8.07;;;4.00;79.20;;;;;;4923469;29;20118;-79
2021/01/25 06:30:24;;;;;;;9.55;7.78;;;3.90;79.10;;;;;;4940872;29;20023;-78
2021/01/25 06:32:51;;;;;;;10.18;8.32;;;4.00;79.20;;;;;;4923805;29;20067;-78
2021/01/25 06:35:18;;;;;;;10.50;8.60;;;3.90;79.10;;;;;;4921219;29;20526;-76
2021/01/25 06:37:52;;;;;;;11.45;8.40;;;3.90;79.10;;;;;;4929954;29;20091;-77
2021/01/25 06:40:27;;;;;;;10.95;8.07;;;3.90;79.20;;;;;;4939046;29;20118;-77
2021/01/25 06:42:53;;;;;;;10.90;8.38;;;3.90;79.10;;;;;;4934746;29;20019;-78
2021/01/25 06:45:25;;;;;;;10.07;7.97;;;3.90;79.00;;;;;;4955004;29;20055;-78
2021/01/25 06:47:52;;;;;;;10.48;8.88;;;3.90;79.10;;;;;;4955297;28;20032;-78
2021/01/25 06:50:19;;;;;;;10.40;8.35;;;3.90;79.10;;;;;;4923643;29;20114;-78
2021/01/25 06:52:49;;;;;;;12.27;9.48;;;3.80;79.00;;;;;;4952865;28;20031;-77
2021/01/25 06:55:16;;;;;;;11.23;9.05;;;3.80;79.10;;;;;;4917646;29;20103;-77
2021/01/25 06:57:45;;;;;;;10.25;8.55;;;3.80;79.10;;;;;;4926469;29;20035;-77
2021/01/25 07:00:18;;;;;;;11.55;9.00;;;3.80;79.10;;;;;;4919662;29;20031;-77
2021/01/25 07:02:57;;;;;;;10.90;8.75;;;3.80;79.00;;;;;;4936389;29;20042;-77
2021/01/25 07:05:36;;;;;;;10.85;8.20;;;3.80;79.20;;;;;;4947116;29;20036;-77
2021/01/25 07:08:26;;;;;;;10.32;8.82;;;3.70;79.00;;;;;;4942371;29;20082;-77
2021/01/25 07:11:03;;;;;;;9.95;8.65;;;3.70;79.10;;;;;;4910647;29;20027;-76
2021/01/25 07:13:33;;;;;;;10.60;8.77;;;3.70;79.00;;;;;;4932319;29;20337;-76
2021/01/25 07:16:00;;;;;;;11.40;8.68;;;3.70;79.00;;;;;;4935727;29;20043;-77
2021/01/25 07:18:27;;;;;;;10.88;8.98;;;3.70;79.00;;;;;;4920319;29;20055;-77
2021/01/25 07:20:55;;;;;;;10.90;9.43;;;3.60;79.00;;;;;;4932915;29;20028;-78
2021/01/25 07:23:23;;;;;;;11.52;9.32;;;3.60;79.00;;;;;;4905703;29;20031;-77
2021/01/25 07:25:58;;;;;;;13.23;9.23;;;3.60;79.00;;;;;;4928519;29;20028;-77
2021/01/25 07:28:25;;;;;;;11.32;8.75;;;3.60;79.10;;;;;;4929120;29;20031;-75
2021/01/25 07:30:51;;;;;;;11.18;8.63;;;3.60;79.00;;;;;;4927631;29;20028;-77
2021/01/25 07:33:18;;;;;;;12.18;10.32;;;3.60;79.00;;;;;;4929150;29;20039;-78
2021/01/25 07:35:44;;;;;;;12.30;8.75;;;3.60;79.00;;;;;;4937977;29;20497;-78
2021/01/25 07:38:10;;;;;;;12.05;8.93;;;3.60;79.10;;;;;;4930193;29;20493;-79
2021/01/25 07:40:36;;;;;;;11.20;8.80;;;3.50;79.00;;;;;;4941718;29;20039;-78
2021/01/25 07:43:04;;;;;;;11.55;9.40;;;3.50;79.00;;;;;;4903931;29;20031;-78
2021/01/25 07:45:29;;;;;;;11.35;9.43;;;3.50;79.00;;;;;;4933876;29;20031;-78
2021/01/25 07:47:55;;;;;;;11.30;9.20;;;3.50;78.90;;;;;;4920285;29;20469;-78
2021/01/25 07:50:21;;;;;;;11.65;9.15;;;3.50;78.90;;;;;;4935438;29;20437;-79
2021/01/25 07:53:01;;;;;;;11.45;9.35;;;3.50;78.90;;;;;;4933426;29;20039;-79
2021/01/25 07:55:28;;;;;;;11.25;9.07;;;3.50;79.10;;;;;;4935476;29;20106;-78
2021/01/25 07:58:04;;;;;;;11.60;9.23;;;3.50;78.90;;;;;;4918932;29;20047;-78
2021/01/25 08:00:30;;;;;;;10.25;8.63;;;3.50;78.90;;;;;;4935192;29;20040;-78
2021/01/25 08:03:12;;;;;;;10.75;9.18;;;3.40;78.90;;;;;;4919556;29;20024;-79
2021/01/25 08:05:39;;;;;;;11.75;9.45;;;3.40;79.00;;;;;;4936097;29;20028;-79
2021/01/25 08:08:09;;;;;;;11.15;9.10;;;3.40;78.90;;;;;;4919507;29;20488;-78
2021/01/25 08:10:35;;;;;;;10.93;8.70;;;3.40;78.90;;;;;;4934469;29;20538;-78
2021/01/25 08:15:59;;;;;;;11.15;8.93;;;3.30;78.90;;;;;;4947484;29;20037;-78
2021/01/25 08:18:53;;;;;;;10.85;8.90;;;3.40;78.90;;;;;;4922672;29;20039;-79
2021/01/25 08:21:29;;;;;;;10.57;8.90;;;3.30;78.80;;;;;;4927274;29;20043;-78
2021/01/25 08:24:01;;;;;;;11.98;9.20;;;3.30;78.80;;;;;;4934249;29;20035;-78
2021/01/25 08:26:29;;;;;;;12.90;9.13;;;3.30;78.80;;;;;;4934836;29;20031;-79
2021/01/25 08:29:04;;;;;;;12.07;9.13;;;3.30;78.80;;;;;;4914003;29;20040;-78
2021/01/25 08:31:40;;;;;;;11.93;9.15;;;3.30;78.80;;;;;;4931677;29;20035;-78
2021/01/25 08:34:24;;;;;;;11.63;9.10;;;3.30;78.80;;;;;;4931586;29;20100;-77
2021/01/25 08:37:07;;;;;;;11.07;9.25;;;3.30;78.80;;;;;;4917587;29;20050;-78
2021/01/25 08:39:44;;;;;;;10.27;8.93;;;3.30;78.80;;;;;;4908379;29;20032;-77
2021/01/25 08:42:22;;;;;;;11.15;9.43;;;3.30;78.70;;;;;;4930914;29;20032;-77
2021/01/25 08:44:53;;;;;;;11.45;9.48;;;3.30;78.80;;;;;;4910100;29;20020;-77
2021/01/25 08:47:24;;;;;;;10.40;8.65;;;3.20;78.70;;;;;;4928233;29;20032;-80
2021/01/25 08:49:51;;;;;;;11.40;8.93;;;3.30;78.70;;;;;;4914419;29;20175;-78
2021/01/25 08:52:39;;;;;;;11.48;8.60;;;3.20;78.70;;;;;;4908210;29;20393;-78
2021/01/25 08:55:09;;;;;;;9.77;8.45;;;3.20;78.70;;;;;;4934359;29;20030;-78
2021/01/25 08:57:37;;;;;;;12.57;10.02;;;3.30;78.70;;;;;;4918569;29;20060;-81
2021/01/25 09:00:17;;;;;;;11.68;9.52;;;3.30;78.70;;;;;;4932869;29;20485;-77
2021/01/25 09:02:44;;;;;;;12.63;9.73;;;3.20;78.70;;;;;;4922531;29;20110;-78
2021/01/25 09:05:12;;;;;;;12.25;9.00;;;3.20;78.60;;;;;;4944649;29;20027;-79
2021/01/25 09:07:37;;;;;;;12.35;10.30;;;3.20;78.60;;;;;;4920987;29;20032;-78
2021/01/25 09:10:05;;;;;;;11.90;9.15;;;3.20;78.60;;;;;;4917769;29;20050;-78
2021/01/25 09:12:31;;;;;;;11.30;9.50;;;3.20;78.60;;;;;;4933391;29;20079;-78
2021/01/25 09:14:57;;;;;;;11.52;9.20;;;3.20;78.60;;;;;;4917927;29;20547;-78
2021/01/25 09:17:24;;;;;;;11.90;9.15;;;3.20;78.60;;;;;;4930716;29;20175;-80
2021/01/25 09:19:51;;;;;;;11.38;9.25;;;3.20;78.60;;;;;;4934417;29;20035;-78
2021/01/25 09:22:18;;;;;;;11.20;8.55;;;3.20;78.60;;;;;;4931104;29;20024;-77
2021/01/25 09:24:44;;;;;;;12.95;9.07;;;3.20;78.60;;;;;;4914611;29;20027;-78
2021/01/25 09:27:10;;;;;;;10.75;9.13;;;3.30;78.70;;;;;;4930947;29;20028;-77
2021/01/25 09:29:37;;;;;;;11.73;9.32;;;3.20;78.60;;;;;;4915620;29;20039;-79
2021/01/25 09:32:04;;;;;;;10.30;9.10;;;3.20;78.60;;;;;;4934185;29;20097;-78
2021/01/25 09:34:30;;;;;;;11.55;9.38;;;3.30;78.70;;;;;;4918016;29;20031;-78
2021/01/25 09:36:56;;;;;;;12.27;9.23;;;3.20;78.60;;;;;;4918398;29;20083;-77
2021/01/25 09:39:21;;;;;;;11.10;9.10;;;3.20;78.70;;;;;;4931751;29;20064;-77
2021/01/25 09:41:48;;;;;;;12.05;8.90;;;3.30;78.70;;;;;;4931209;29;20060;-77
2021/01/25 09:44:15;;;;;;;11.82;9.73;;;3.30;78.70;;;;;;4911835;29;20028;-77
2021/01/25 09:46:42;;;;;;;12.70;9.70;;;3.20;78.70;;;;;;4922768;29;20148;-82
2021/01/25 09:49:08;;;;;;;12.15;8.80;;;3.30;78.80;;;;;;4933984;29;20031;-79
2021/01/25 09:51:35;;;;;;;12.13;9.75;;;3.30;78.80;;;;;;4912846;29;20374;-78
2021/01/25 09:54:01;;;;;;;11.27;8.45;;;3.30;78.80;;;;;;4930031;29;20393;-79
2021/01/25 09:56:26;;;;;;;10.75;8.68;;;3.30;78.70;;;;;;4917775;29;20107;-78
2021/01/25 09:58:52;;;;;;;10.32;8.45;;;3.30;78.80;;;;;;4942557;29;20019;-77
2021/01/25 10:01:18;;;;;;;10.52;8.70;;;3.30;78.80;;;;;;4941263;29;20043;-78
2021/01/25 10:03:43;;;;;;;11.55;8.85;;;3.40;78.90;;;;;;4918058;29;20027;-79
2021/01/25 10:06:09;;;;;;;11.45;9.00;;;3.40;78.90;;;;;;4918305;29;20064;-79
2021/01/25 10:08:36;;;;;;;10.75;8.65;;;3.40;78.90;;;;;;4934660;29;20497;-79
2021/01/25 10:11:04;;;;;;;10.00;8.60;;;3.40;79.00;;;;;;4924806;29;20024;-79
2021/01/25 10:13:29;;;;;;;11.65;8.43;;;3.40;79.00;;;;;;4916834;29;20060;-78
2021/01/25 10:15:55;;;;;;;12.38;9.65;;;3.40;79.00;;;;;;4933705;29;20496;-78
2021/01/25 10:18:21;;;;;;;10.88;8.63;;;3.40;79.00;;;;;;4911833;29;20043;-79
2021/01/25 10:20:46;;;;;;;12.25;8.80;;;3.50;79.10;;;;;;4929339;29;20842;-78
2021/01/25 10:23:12;;;;;;;13.13;9.80;;;3.50;79.10;;;;;;4932561;29;20539;-80
2021/01/25 10:25:38;;;;;;;11.15;9.15;;;3.50;79.00;;;;;;4911733;29;20122;-79
2021/01/25 10:28:04;;;;;;;12.23;9.07;;;3.50;79.10;;;;;;4938735;28;20046;-79
2021/01/25 10:30:30;;;;;;;12.68;9.77;;;3.50;79.10;;;;;;4936470;29;20028;-78
2021/01/25 10:32:56;;;;;;;11.63;9.45;;;3.50;79.20;;;;;;4926427;29;20042;-78
2021/01/25 10:35:23;;;;;;;11.35;9.45;;;3.60;79.20;;;;;;4937220;29;20040;-81
2021/01/25 10:37:50;;;;;;;11.98;9.07;;;3.60;79.30;;;;;;4934644;29;20038;-79
2021/01/25 10:40:16;;;;;;;11.43;8.77;;;3.60;79.30;;;;;;4932566;29;20038;-80
2021/01/25 10:42:42;;;;;;;10.95;9.23;;;3.60;79.30;;;;;;4929936;29;20114;-78
2021/01/25 10:45:09;;;;;;;11.32;9.05;;;3.60;79.30;;;;;;4933525;29;20039;-79
2021/01/25 10:47:35;;;;;;;11.75;8.80;;;3.60;79.30;;;;;;4937370;29;20035;-79
2021/01/25 10:50:01;;;;;;;11.52;9.02;;;3.70;79.40;;;;;;4937186;29;20136;-79
2021/01/25 10:52:27;;;;;;;11.55;9.55;;;3.70;79.40;;;;;;4937757;29;20400;-79
2021/01/25 10:54:53;;;;;;;11.27;9.02;;;3.70;79.40;;;;;;4920914;29;20039;-80
2021/01/25 10:57:18;;;;;;;11.02;9.02;;;3.70;79.40;;;;;;4920787;29;20130;-79
2021/01/25 10:59:44;;;;;;;11.15;8.77;;;3.80;79.50;;;;;;4936621;29;20035;-79
2021/01/25 11:02:10;;;;;;;11.60;9.48;;;3.80;79.50;;;;;;4936780;29;20042;-79
2021/01/25 11:04:36;;;;;;;11.88;9.48;;;3.80;79.50;;;;;;4933260;29;20047;-80
2021/01/25 11:07:02;;;;;;;11.20;9.25;;;3.80;79.50;;;;;;4914331;29;20388;-79
2021/01/25 11:09:28;;;;;;;11.25;8.95;;;3.80;79.50;;;;;;4936726;29;20043;-79
2021/01/25 11:11:54;;;;;;;11.25;8.75;;;3.80;79.50;;;;;;4936068;29;20048;-80
2021/01/25 11:14:21;;;;;;;12.75;8.95;;;3.90;79.60;;;;;;4920531;29;20056;-79
2021/01/25 11:16:46;;;;;;;12.93;9.00;;;3.90;79.60;;;;;;4937488;29;20068;-79
2021/01/25 11:19:12;;;;;;;11.15;8.68;;;3.90;79.60;;;;;;4952242;29;20548;-79
2021/01/25 11:21:38;;;;;;;10.80;9.00;;;3.90;79.60;;;;;;4951497;29;20445;-79
2021/01/25 11:24:05;;;;;;;11.40;8.85;;;3.90;79.60;;;;;;4920560;29;20035;-80
2021/01/25 11:26:36;;;;;;;12.05;8.20;;;3.90;79.60;;;;;;4904595;29;20035;-79
2021/01/25 11:29:02;;;;;;;11.00;8.70;;;4.00;79.70;;;;;;4918508;29;20048;-78
2021/01/25 11:31:28;;;;;;;11.48;9.15;;;3.90;79.60;;;;;;4935264;29;20032;-78
2021/01/25 11:33:53;;;;;;;10.25;8.15;;;4.00;79.70;;;;;;4936106;29;20040;-79
2021/01/25 11:36:19;;;;;;;9.30;7.85;;;4.00;80.30;;;;;;4916131;29;20020;-79
2021/01/25 11:38:45;;;;;;;10.27;7.90;;;4.00;79.70;;;;;;4935654;29;20521;-79
2021/01/25 11:41:11;;;;;;;10.65;8.38;;;4.00;79.70;;;;;;4920335;29;20123;-79
2021/01/25 11:43:37;;;;;;;11.20;8.90;;;4.00;79.70;;;;;;4919906;29;20470;-78
2021/01/25 11:46:03;;;;;;;11.07;8.88;;;4.00;79.70;;;;;;4935743;29;20043;-80
2021/01/25 11:48:28;;;;;;;11.10;8.55;;;4.10;79.80;;;;;;4934905;29;20040;-78
2021/01/25 11:50:54;;;;;;;9.85;7.60;;;4.10;79.80;;;;;;4935407;29;20473;-78
2021/01/25 11:53:20;;;;;;;10.48;7.80;;;4.10;79.80;;;;;;4951415;29;20031;-78
2021/01/25 11:55:46;;;;;;;9.60;8.40;;;4.10;79.80;;;;;;4919969;29;20031;-79
2021/01/25 11:58:12;;;;;;;10.85;8.60;;;4.10;79.90;;;;;;4932659;29;20036;-79
2021/01/25 12:00:38;;;;;;;11.63;8.48;;;4.10;79.90;;;;;;4935138;29;20487;-79
2021/01/25 12:03:04;;;;;;;9.88;8.18;;;4.10;79.90;;;;;;4920027;29;20023;-79
2021/01/25 12:05:31;;;;;;;11.85;9.18;;;4.10;79.90;;;;;;4934837;29;20043;-79
2021/01/25 12:07:58;;;;;;;12.05;8.55;;;4.20;80.00;;;;;;4919433;29;20126;-79
2021/01/25 12:10:24;;;;;;;10.57;8.35;;;4.20;80.00;;;;;;4903979;29;20032;-78
2021/01/25 12:12:49;;;;;;;11.23;8.45;;;4.20;80.00;;;;;;4934439;29;20400;-78
2021/01/25 12:15:15;;;;;;;9.55;7.72;;;4.20;80.00;;;;;;4951420;29;20396;-79
2021/01/25 12:17:41;;;;;;;10.82;9.13;;;4.20;80.00;;;;;;4919369;29;20134;-80
2021/01/25 12:20:08;;;;;;;10.60;8.32;;;4.20;80.00;;;;;;4919558;29;20536;-79
2021/01/25 12:22:33;;;;;;;10.43;8.18;;;4.30;80.10;;;;;;4934802;29;20032;-79
2021/01/25 12:24:59;;;;;;;10.70;8.10;;;4.30;80.10;;;;;;4934671;29;20031;-78
2021/01/25 12:27:25;;;;;;;10.70;7.97;;;4.30;80.10;;;;;;4935975;29;20042;-79
2021/01/25 12:29:50;;;;;;;9.05;7.38;;;4.30;80.10;;;;;;4903280;29;20031;-80
2021/01/25 12:32:16;;;;;;;9.85;7.90;;;4.40;80.10;;;;;;4919192;29;20381;-79
2021/01/25 12:34:42;;;;;;;9.50;7.55;;;4.40;80.10;;;;;;4916629;29;20031;-79
2021/01/25 12:37:08;;;;;;;10.30;7.50;;;4.40;80.10;;;;;;4935352;29;20031;-78
2021/01/25 12:39:34;;;;;;;9.43;6.85;;;4.40;80.10;;;;;;4934981;29;20035;-79
2021/01/25 12:42:00;;;;;;;8.43;6.43;;;4.50;80.10;;;;;;4929714;29;20039;-79
2021/01/25 12:44:26;;;;;;;9.07;6.65;;;4.50;80.20;;;;;;4935154;29;20031;-78
2021/01/25 12:46:52;;;;;;;9.05;6.43;;;4.50;80.20;;;;;;4918649;29;20461;-78
2021/01/25 12:49:19;;;;;;;9.45;6.53;;;4.50;80.10;;;;;;4903183;29;20122;-78
2021/01/25 12:51:46;;;;;;;9.02;6.15;;;4.60;80.10;;;;;;4932071;29;20036;-79
2021/01/25 12:54:12;;;;;;;7.53;6.50;;;4.60;80.10;;;;;;4934584;29;20036;-78